sensor_id;sensor_type;location;lat;lon;timestamp;P1;durP1;ratioP1;P2;durP2;ratioP2
14088;SDS011;7120;52.890;6.040;2023-05-21T00:01:32;3.90;;;3.60;;
14088;SDS011;7120;52.890;6.040;2023-05-21T00:03:58;5.73;;;4.03;;
14088;SDS011;7120;52.890;6.040;2023-05-21T00:06:23;4.83;;;4.33;;
14088;SDS011;7120;52.890;6.040;2023-05-21T00:08:49;6.00;;;4.33;;
14088;SDS011;7120;52.890;6.040;2023-05-21T00:11:14;5.17;;;4.47;;
14088;SDS011;7120;52.890;6.040;2023-05-21T00:13:40;4.47;;;4.07;;
14088;SDS011;7120;52.890;6.040;2023-05-21T00:16:05;5.47;;;4.47;;
14088;SDS011;7120;52.890;6.040;2023-05-21T00:18:31;5.30;;;4.03;;
14088;SDS011;7120;52.890;6.040;2023-05-21T00:20:58;5.23;;;4.50;;
14088;SDS011;7120;52.890;6.040;2023-05-21T00:23:24;5.30;;;4.63;;
14088;SDS011;7120;52.890;6.040;2023-05-21T00:25:50;5.53;;;5.00;;
14088;SDS011;7120;52.890;6.040;2023-05-21T00:28:16;5.23;;;4.70;;
14088;SDS011;7120;52.890;6.040;2023-05-21T00:30:42;6.37;;;4.10;;
14088;SDS011;7120;52.890;6.040;2023-05-21T00:33:07;5.00;;;4.50;;
14088;SDS011;7120;52.890;6.040;2023-05-21T00:35:34;5.00;;;4.47;;
14088;SDS011;7120;52.890;6.040;2023-05-21T00:38:00;5.53;;;4.63;;
14088;SDS011;7120;52.890;6.040;2023-05-21T00:40:25;6.10;;;4.90;;
14088;SDS011;7120;52.890;6.040;2023-05-21T00:42:52;5.00;;;4.60;;
14088;SDS011;7120;52.890;6.040;2023-05-21T00:45:20;6.10;;;4.77;;
14088;SDS011;7120;52.890;6.040;2023-05-21T00:47:48;6.17;;;5.00;;
14088;SDS011;7120;52.890;6.040;2023-05-21T00:50:18;5.40;;;4.80;;
14088;SDS011;7120;52.890;6.040;2023-05-21T00:52:44;6.77;;;5.40;;
14088;SDS011;7120;52.890;6.040;2023-05-21T00:55:10;6.37;;;4.93;;
14088;SDS011;7120;52.890;6.040;2023-05-21T00:57:36;5.50;;;5.00;;
14088;SDS011;7120;52.890;6.040;2023-05-21T01:00:03;5.30;;;4.80;;
14088;SDS011;7120;52.890;6.040;2023-05-21T01:02:31;5.63;;;4.50;;
14088;SDS011;7120;52.890;6.040;2023-05-21T01:04:58;5.60;;;4.90;;
14088;SDS011;7120;52.890;6.040;2023-05-21T01:07:24;7.00;;;5.03;;
14088;SDS011;7120;52.890;6.040;2023-05-21T01:09:50;5.63;;;4.93;;
14088;SDS011;7120;52.890;6.040;2023-05-21T01:12:16;6.67;;;5.07;;
14088;SDS011;7120;52.890;6.040;2023-05-21T01:14:43;5.50;;;4.53;;
14088;SDS011;7120;52.890;6.040;2023-05-21T01:17:09;6.87;;;5.03;;
14088;SDS011;7120;52.890;6.040;2023-05-21T01:19:34;5.53;;;4.70;;
14088;SDS011;7120;52.890;6.040;2023-05-21T01:22:04;6.23;;;4.70;;
14088;SDS011;7120;52.890;6.040;2023-05-21T01:24:31;7.27;;;5.10;;
14088;SDS011;7120;52.890;6.040;2023-05-21T01:26:57;6.27;;;4.90;;
14088;SDS011;7120;52.890;6.040;2023-05-21T01:29:23;6.47;;;4.90;;
14088;SDS011;7120;52.890;6.040;2023-05-21T01:34:28;5.63;;;5.00;;
14088;SDS011;7120;52.890;6.040;2023-05-21T01:37:01;5.37;;;4.87;;
14088;SDS011;7120;52.890;6.040;2023-05-21T01:39:36;5.47;;;4.97;;
14088;SDS011;7120;52.890;6.040;2023-05-21T01:42:05;5.83;;;5.07;;
14088;SDS011;7120;52.890;6.040;2023-05-21T01:44:34;5.50;;;5.00;;
14088;SDS011;7120;52.890;6.040;2023-05-21T01:47:00;6.87;;;5.40;;
14088;SDS011;7120;52.890;6.040;2023-05-21T01:49:28;8.33;;;5.63;;
14088;SDS011;7120;52.890;6.040;2023-05-21T01:51:54;6.33;;;5.70;;
14088;SDS011;7120;52.890;6.040;2023-05-21T01:54:20;8.00;;;5.60;;
14088;SDS011;7120;52.890;6.040;2023-05-21T01:56:46;7.07;;;5.57;;
14088;SDS011;7120;52.890;6.040;2023-05-21T01:59:11;5.83;;;5.33;;
14088;SDS011;7120;52.890;6.040;2023-05-21T02:01:37;8.07;;;5.63;;
14088;SDS011;7120;52.890;6.040;2023-05-21T02:04:02;5.50;;;5.00;;
14088;SDS011;7120;52.890;6.040;2023-05-21T02:06:28;9.57;;;5.73;;
14088;SDS011;7120;52.890;6.040;2023-05-21T02:08:55;7.83;;;5.50;;
14088;SDS011;7120;52.890;6.040;2023-05-21T02:11:21;5.70;;;5.20;;
14088;SDS011;7120;52.890;6.040;2023-05-21T02:13:47;6.80;;;6.10;;
14088;SDS011;7120;52.890;6.040;2023-05-21T02:16:12;6.50;;;5.60;;
14088;SDS011;7120;52.890;6.040;2023-05-21T02:18:40;8.17;;;6.07;;
14088;SDS011;7120;52.890;6.040;2023-05-21T02:21:09;8.37;;;6.33;;
14088;SDS011;7120;52.890;6.040;2023-05-21T02:23:35;7.20;;;6.13;;
14088;SDS011;7120;52.890;6.040;2023-05-21T02:26:01;6.83;;;6.10;;
14088;SDS011;7120;52.890;6.040;2023-05-21T02:28:27;6.63;;;5.93;;
14088;SDS011;7120;52.890;6.040;2023-05-21T02:30:53;7.10;;;6.40;;
14088;SDS011;7120;52.890;6.040;2023-05-21T02:33:19;6.63;;;6.03;;
14088;SDS011;7120;52.890;6.040;2023-05-21T02:35:45;6.97;;;6.27;;
14088;SDS011;7120;52.890;6.040;2023-05-21T02:38:11;7.50;;;6.00;;
14088;SDS011;7120;52.890;6.040;2023-05-21T02:40:37;7.30;;;6.33;;
14088;SDS011;7120;52.890;6.040;2023-05-21T02:43:03;7.10;;;6.40;;
14088;SDS011;7120;52.890;6.040;2023-05-21T02:45:28;6.63;;;6.00;;
14088;SDS011;7120;52.890;6.040;2023-05-21T02:47:54;8.00;;;6.27;;
14088;SDS011;7120;52.890;6.040;2023-05-21T02:50:19;6.37;;;5.73;;
14088;SDS011;7120;52.890;6.040;2023-05-21T02:52:46;7.27;;;6.37;;
14088;SDS011;7120;52.890;6.040;2023-05-21T02:55:12;8.90;;;5.93;;
14088;SDS011;7120;52.890;6.040;2023-05-21T02:57:38;7.20;;;6.20;;
14088;SDS011;7120;52.890;6.040;2023-05-21T03:00:03;7.97;;;7.17;;
14088;SDS011;7120;52.890;6.040;2023-05-21T03:02:30;9.40;;;6.53;;
14088;SDS011;7120;52.890;6.040;2023-05-21T03:04:55;8.53;;;6.70;;
14088;SDS011;7120;52.890;6.040;2023-05-21T03:07:21;8.53;;;6.70;;
14088;SDS011;7120;52.890;6.040;2023-05-21T03:09:48;8.60;;;7.77;;
14088;SDS011;7120;52.890;6.040;2023-05-21T03:12:13;7.33;;;6.40;;
14088;SDS011;7120;52.890;6.040;2023-05-21T03:14:39;7.93;;;6.93;;
14088;SDS011;7120;52.890;6.040;2023-05-21T03:17:06;7.07;;;6.47;;
14088;SDS011;7120;52.890;6.040;2023-05-21T03:19:32;8.27;;;6.97;;
14088;SDS011;7120;52.890;6.040;2023-05-21T03:22:01;7.37;;;6.37;;
14088;SDS011;7120;52.890;6.040;2023-05-21T03:24:28;8.93;;;7.00;;
14088;SDS011;7120;52.890;6.040;2023-05-21T03:26:57;9.03;;;7.60;;
14088;SDS011;7120;52.890;6.040;2023-05-21T03:29:25;9.80;;;7.27;;
14088;SDS011;7120;52.890;6.040;2023-05-21T03:31:51;7.80;;;6.83;;
14088;SDS011;7120;52.890;6.040;2023-05-21T03:34:17;9.53;;;6.47;;
14088;SDS011;7120;52.890;6.040;2023-05-21T03:36:44;7.53;;;6.83;;
14088;SDS011;7120;52.890;6.040;2023-05-21T03:39:10;8.60;;;7.10;;
14088;SDS011;7120;52.890;6.040;2023-05-21T03:41:35;7.97;;;7.17;;
14088;SDS011;7120;52.890;6.040;2023-05-21T03:44:00;9.10;;;7.60;;
14088;SDS011;7120;52.890;6.040;2023-05-21T03:46:26;11.60;;;7.43;;
14088;SDS011;7120;52.890;6.040;2023-05-21T03:48:52;8.80;;;6.87;;
14088;SDS011;7120;52.890;6.040;2023-05-21T03:51:17;8.33;;;7.43;;
14088;SDS011;7120;52.890;6.040;2023-05-21T03:53:44;8.40;;;7.17;;
14088;SDS011;7120;52.890;6.040;2023-05-21T03:56:09;7.83;;;7.03;;
14088;SDS011;7120;52.890;6.040;2023-05-21T03:58:34;8.40;;;7.37;;
14088;SDS011;7120;52.890;6.040;2023-05-21T04:01:00;8.43;;;7.63;;
14088;SDS011;7120;52.890;6.040;2023-05-21T04:03:26;9.37;;;8.10;;
14088;SDS011;7120;52.890;6.040;2023-05-21T04:05:52;9.63;;;7.80;;
14088;SDS011;7120;52.890;6.040;2023-05-21T04:08:18;9.83;;;8.67;;
14088;SDS011;7120;52.890;6.040;2023-05-21T04:10:43;10.90;;;8.97;;
14088;SDS011;7120;52.890;6.040;2023-05-21T04:13:08;9.70;;;8.67;;
14088;SDS011;7120;52.890;6.040;2023-05-21T04:15:34;12.30;;;8.90;;
14088;SDS011;7120;52.890;6.040;2023-05-21T04:18:00;10.77;;;8.73;;
14088;SDS011;7120;52.890;6.040;2023-05-21T04:20:25;10.07;;;9.07;;
14088;SDS011;7120;52.890;6.040;2023-05-21T04:22:50;10.30;;;9.20;;
14088;SDS011;7120;52.890;6.040;2023-05-21T04:25:16;10.03;;;8.90;;
14088;SDS011;7120;52.890;6.040;2023-05-21T04:27:42;10.77;;;9.13;;
14088;SDS011;7120;52.890;6.040;2023-05-21T04:30:11;11.33;;;9.17;;
14088;SDS011;7120;52.890;6.040;2023-05-21T04:32:37;11.73;;;9.60;;
14088;SDS011;7120;52.890;6.040;2023-05-21T04:35:03;12.47;;;9.87;;
14088;SDS011;7120;52.890;6.040;2023-05-21T04:37:29;11.37;;;9.63;;
14088;SDS011;7120;52.890;6.040;2023-05-21T04:39:56;11.00;;;9.40;;
14088;SDS011;7120;52.890;6.040;2023-05-21T04:42:21;14.60;;;9.57;;
14088;SDS011;7120;52.890;6.040;2023-05-21T04:44:50;10.27;;;8.90;;
14088;SDS011;7120;52.890;6.040;2023-05-21T04:47:16;11.13;;;9.10;;
14088;SDS011;7120;52.890;6.040;2023-05-21T04:49:42;10.07;;;9.07;;
14088;SDS011;7120;52.890;6.040;2023-05-21T04:52:08;11.33;;;9.50;;
14088;SDS011;7120;52.890;6.040;2023-05-21T04:54:34;10.93;;;9.67;;
14088;SDS011;7120;52.890;6.040;2023-05-21T04:57:00;11.23;;;9.30;;
14088;SDS011;7120;52.890;6.040;2023-05-21T04:59:26;14.33;;;9.50;;
14088;SDS011;7120;52.890;6.040;2023-05-21T05:01:52;13.50;;;9.80;;
14088;SDS011;7120;52.890;6.040;2023-05-21T05:04:17;9.70;;;8.77;;
14088;SDS011;7120;52.890;6.040;2023-05-21T05:06:42;12.00;;;9.30;;
14088;SDS011;7120;52.890;6.040;2023-05-21T05:09:08;11.30;;;9.27;;
14088;SDS011;7120;52.890;6.040;2023-05-21T05:11:33;13.03;;;9.27;;
14088;SDS011;7120;52.890;6.040;2023-05-21T05:13:58;11.63;;;9.87;;
14088;SDS011;7120;52.890;6.040;2023-05-21T05:16:24;9.20;;;8.20;;
14088;SDS011;7120;52.890;6.040;2023-05-21T05:18:53;11.60;;;8.77;;
14088;SDS011;7120;52.890;6.040;2023-05-21T05:21:19;10.27;;;9.13;;
14088;SDS011;7120;52.890;6.040;2023-05-21T05:23:46;9.93;;;8.93;;
14088;SDS011;7120;52.890;6.040;2023-05-21T05:26:11;9.47;;;8.53;;
14088;SDS011;7120;52.890;6.040;2023-05-21T05:28:37;9.90;;;8.87;;
14088;SDS011;7120;52.890;6.040;2023-05-21T05:31:03;13.57;;;9.00;;
14088;SDS011;7120;52.890;6.040;2023-05-21T05:33:28;9.27;;;8.37;;
14088;SDS011;7120;52.890;6.040;2023-05-21T05:35:53;11.23;;;9.47;;
14088;SDS011;7120;52.890;6.040;2023-05-21T05:38:19;9.93;;;8.20;;
14088;SDS011;7120;52.890;6.040;2023-05-21T05:40:44;10.63;;;8.90;;
14088;SDS011;7120;52.890;6.040;2023-05-21T05:43:10;12.00;;;8.50;;
14088;SDS011;7120;52.890;6.040;2023-05-21T05:45:35;11.93;;;9.07;;
14088;SDS011;7120;52.890;6.040;2023-05-21T05:48:00;10.77;;;8.27;;
14088;SDS011;7120;52.890;6.040;2023-05-21T05:50:26;11.37;;;8.23;;
14088;SDS011;7120;52.890;6.040;2023-05-21T05:52:52;10.90;;;8.27;;
14088;SDS011;7120;52.890;6.040;2023-05-21T05:55:17;9.37;;;8.43;;
14088;SDS011;7120;52.890;6.040;2023-05-21T05:57:42;11.77;;;9.10;;
14088;SDS011;7120;52.890;6.040;2023-05-21T06:00:08;11.87;;;8.67;;
14088;SDS011;7120;52.890;6.040;2023-05-21T06:02:34;8.83;;;7.90;;
14088;SDS011;7120;52.890;6.040;2023-05-21T06:05:00;10.43;;;8.40;;
14088;SDS011;7120;52.890;6.040;2023-05-21T06:07:27;11.33;;;8.27;;
14088;SDS011;7120;52.890;6.040;2023-05-21T06:09:52;8.87;;;7.97;;
14088;SDS011;7120;52.890;6.040;2023-05-21T06:12:18;9.90;;;8.97;;
14088;SDS011;7120;52.890;6.040;2023-05-21T06:14:43;8.90;;;7.70;;
14088;SDS011;7120;52.890;6.040;2023-05-21T06:17:10;12.57;;;8.40;;
14088;SDS011;7120;52.890;6.040;2023-05-21T06:19:36;9.17;;;7.73;;
14088;SDS011;7120;52.890;6.040;2023-05-21T06:22:01;10.10;;;7.47;;
14088;SDS011;7120;52.890;6.040;2023-05-21T06:24:26;11.93;;;7.80;;
14088;SDS011;7120;52.890;6.040;2023-05-21T06:26:52;11.13;;;7.53;;
14088;SDS011;7120;52.890;6.040;2023-05-21T06:29:17;10.43;;;7.30;;
14088;SDS011;7120;52.890;6.040;2023-05-21T06:31:42;8.67;;;6.80;;
14088;SDS011;7120;52.890;6.040;2023-05-21T06:34:08;7.87;;;6.97;;
14088;SDS011;7120;52.890;6.040;2023-05-21T06:36:35;10.40;;;6.83;;
14088;SDS011;7120;52.890;6.040;2023-05-21T06:39:01;8.37;;;6.50;;
14088;SDS011;7120;52.890;6.040;2023-05-21T06:41:27;8.47;;;6.97;;
14088;SDS011;7120;52.890;6.040;2023-05-21T06:43:52;6.87;;;6.20;;
14088;SDS011;7120;52.890;6.040;2023-05-21T06:46:18;10.97;;;6.47;;
14088;SDS011;7120;52.890;6.040;2023-05-21T06:48:43;8.97;;;6.50;;
14088;SDS011;7120;52.890;6.040;2023-05-21T06:51:09;11.50;;;7.03;;
14088;SDS011;7120;52.890;6.040;2023-05-21T06:53:34;10.27;;;6.70;;
14088;SDS011;7120;52.890;6.040;2023-05-21T06:55:59;9.63;;;6.57;;
14088;SDS011;7120;52.890;6.040;2023-05-21T06:58:25;7.43;;;6.63;;
14088;SDS011;7120;52.890;6.040;2023-05-21T07:00:55;7.70;;;6.17;;
14088;SDS011;7120;52.890;6.040;2023-05-21T07:03:22;8.57;;;6.70;;
14088;SDS011;7120;52.890;6.040;2023-05-21T07:05:47;8.13;;;6.30;;
14088;SDS011;7120;52.890;6.040;2023-05-21T07:08:12;8.57;;;6.93;;
14088;SDS011;7120;52.890;6.040;2023-05-21T07:10:38;7.90;;;6.20;;
14088;SDS011;7120;52.890;6.040;2023-05-21T07:13:03;6.60;;;5.53;;
14088;SDS011;7120;52.890;6.040;2023-05-21T07:15:28;8.00;;;5.80;;
14088;SDS011;7120;52.890;6.040;2023-05-21T07:17:54;6.20;;;5.57;;
14088;SDS011;7120;52.890;6.040;2023-05-21T07:20:19;6.33;;;5.50;;
14088;SDS011;7120;52.890;6.040;2023-05-21T07:22:45;7.00;;;6.23;;
14088;SDS011;7120;52.890;6.040;2023-05-21T07:25:10;7.23;;;6.00;;
14088;SDS011;7120;52.890;6.040;2023-05-21T07:27:35;6.73;;;5.73;;
14088;SDS011;7120;52.890;6.040;2023-05-21T07:30:01;7.33;;;5.97;;
14088;SDS011;7120;52.890;6.040;2023-05-21T07:32:26;8.23;;;5.67;;
14088;SDS011;7120;52.890;6.040;2023-05-21T07:34:53;7.23;;;5.57;;
14088;SDS011;7120;52.890;6.040;2023-05-21T07:37:19;7.83;;;5.63;;
14088;SDS011;7120;52.890;6.040;2023-05-21T07:39:45;8.30;;;6.20;;
14088;SDS011;7120;52.890;6.040;2023-05-21T07:42:10;9.13;;;5.47;;
14088;SDS011;7120;52.890;6.040;2023-05-21T07:44:35;6.57;;;5.97;;
14088;SDS011;7120;52.890;6.040;2023-05-21T07:47:01;8.27;;;6.03;;
14088;SDS011;7120;52.890;6.040;2023-05-21T07:49:26;6.23;;;5.63;;
14088;SDS011;7120;52.890;6.040;2023-05-21T07:51:51;9.00;;;5.90;;
14088;SDS011;7120;52.890;6.040;2023-05-21T07:54:17;5.80;;;5.30;;
14088;SDS011;7120;52.890;6.040;2023-05-21T07:56:43;6.17;;;5.57;;
14088;SDS011;7120;52.890;6.040;2023-05-21T07:59:08;6.87;;;6.17;;
14088;SDS011;7120;52.890;6.040;2023-05-21T08:01:34;7.87;;;5.50;;
14088;SDS011;7120;52.890;6.040;2023-05-21T08:04:01;6.60;;;5.10;;
14088;SDS011;7120;52.890;6.040;2023-05-21T08:06:30;6.07;;;5.40;;
14088;SDS011;7120;52.890;6.040;2023-05-21T08:08:55;7.80;;;5.30;;
14088;SDS011;7120;52.890;6.040;2023-05-21T08:11:21;8.23;;;5.83;;
14088;SDS011;7120;52.890;6.040;2023-05-21T08:13:47;6.53;;;5.73;;
14088;SDS011;7120;52.890;6.040;2023-05-21T08:16:12;6.50;;;5.53;;
14088;SDS011;7120;52.890;6.040;2023-05-21T08:18:38;6.67;;;5.73;;
14088;SDS011;7120;52.890;6.040;2023-05-21T08:21:03;7.50;;;5.80;;
14088;SDS011;7120;52.890;6.040;2023-05-21T08:23:29;6.37;;;5.40;;
14088;SDS011;7120;52.890;6.040;2023-05-21T08:25:54;6.97;;;5.57;;
14088;SDS011;7120;52.890;6.040;2023-05-21T08:28:20;7.73;;;6.10;;
14088;SDS011;7120;52.890;6.040;2023-05-21T08:30:48;5.97;;;5.37;;
14088;SDS011;7120;52.890;6.040;2023-05-21T08:33:13;6.23;;;5.63;;
14088;SDS011;7120;52.890;6.040;2023-05-21T08:35:39;6.67;;;5.73;;
14088;SDS011;7120;52.890;6.040;2023-05-21T08:38:04;7.97;;;6.20;;
14088;SDS011;7120;52.890;6.040;2023-05-21T08:40:30;8.20;;;6.17;;
14088;SDS011;7120;52.890;6.040;2023-05-21T08:42:55;8.73;;;6.17;;
14088;SDS011;7120;52.890;6.040;2023-05-21T08:45:21;9.77;;;6.63;;
14088;SDS011;7120;52.890;6.040;2023-05-21T08:47:48;6.60;;;5.90;;
14088;SDS011;7120;52.890;6.040;2023-05-21T08:50:25;7.03;;;6.33;;
14088;SDS011;7120;52.890;6.040;2023-05-21T08:52:51;9.40;;;6.93;;
14088;SDS011;7120;52.890;6.040;2023-05-21T08:55:19;6.97;;;6.37;;
14088;SDS011;7120;52.890;6.040;2023-05-21T08:57:46;7.77;;;6.53;;
14088;SDS011;7120;52.890;6.040;2023-05-21T09:00:12;7.67;;;6.90;;
14088;SDS011;7120;52.890;6.040;2023-05-21T09:02:38;8.47;;;7.03;;
14088;SDS011;7120;52.890;6.040;2023-05-21T09:05:08;6.33;;;5.73;;
14088;SDS011;7120;52.890;6.040;2023-05-21T09:07:38;7.17;;;6.47;;
14088;SDS011;7120;52.890;6.040;2023-05-21T09:10:09;7.23;;;6.53;;
14088;SDS011;7120;52.890;6.040;2023-05-21T09:12:37;7.90;;;6.90;;
14088;SDS011;7120;52.890;6.040;2023-05-21T09:15:02;7.23;;;6.47;;
14088;SDS011;7120;52.890;6.040;2023-05-21T09:17:29;7.60;;;6.70;;
14088;SDS011;7120;52.890;6.040;2023-05-21T09:22:46;8.73;;;6.30;;
14088;SDS011;7120;52.890;6.040;2023-05-21T09:25:14;7.37;;;6.60;;
14088;SDS011;7120;52.890;6.040;2023-05-21T09:27:40;7.33;;;6.63;;
14088;SDS011;7120;52.890;6.040;2023-05-21T09:30:10;7.30;;;6.60;;
14088;SDS011;7120;52.890;6.040;2023-05-21T09:32:36;7.47;;;6.70;;
14088;SDS011;7120;52.890;6.040;2023-05-21T09:35:06;8.80;;;6.50;;
14088;SDS011;7120;52.890;6.040;2023-05-21T09:37:39;7.70;;;7.00;;
14088;SDS011;7120;52.890;6.040;2023-05-21T09:40:17;7.97;;;7.17;;
14088;SDS011;7120;52.890;6.040;2023-05-21T09:42:45;7.30;;;6.60;;
14088;SDS011;7120;52.890;6.040;2023-05-21T09:45:20;8.37;;;7.03;;
14088;SDS011;7120;52.890;6.040;2023-05-21T09:47:47;7.60;;;6.67;;
14088;SDS011;7120;52.890;6.040;2023-05-21T09:50:34;7.20;;;6.30;;
14088;SDS011;7120;52.890;6.040;2023-05-21T09:53:00;8.07;;;6.00;;
14088;SDS011;7120;52.890;6.040;2023-05-21T09:55:25;7.17;;;6.50;;
14088;SDS011;7120;52.890;6.040;2023-05-21T09:57:51;10.10;;;6.77;;
14088;SDS011;7120;52.890;6.040;2023-05-21T10:00:18;6.87;;;6.00;;
14088;SDS011;7120;52.890;6.040;2023-05-21T10:02:44;7.00;;;5.90;;
14088;SDS011;7120;52.890;6.040;2023-05-21T10:05:13;8.10;;;6.10;;
14088;SDS011;7120;52.890;6.040;2023-05-21T10:07:49;6.90;;;6.20;;
14088;SDS011;7120;52.890;6.040;2023-05-21T10:10:18;11.57;;;5.93;;
14088;SDS011;7120;52.890;6.040;2023-05-21T10:12:45;8.77;;;6.20;;
14088;SDS011;7120;52.890;6.040;2023-05-21T10:15:15;6.30;;;5.70;;
14088;SDS011;7120;52.890;6.040;2023-05-21T10:17:44;7.57;;;5.67;;
14088;SDS011;7120;52.890;6.040;2023-05-21T10:20:12;11.53;;;6.03;;
14088;SDS011;7120;52.890;6.040;2023-05-21T10:22:38;8.10;;;5.83;;
14088;SDS011;7120;52.890;6.040;2023-05-21T10:25:05;7.20;;;5.80;;
14088;SDS011;7120;52.890;6.040;2023-05-21T10:27:32;8.23;;;6.17;;
14088;SDS011;7120;52.890;6.040;2023-05-21T10:29:59;6.60;;;5.63;;
14088;SDS011;7120;52.890;6.040;2023-05-21T10:32:27;8.27;;;5.97;;
14088;SDS011;7120;52.890;6.040;2023-05-21T10:34:54;7.30;;;5.63;;
14088;SDS011;7120;52.890;6.040;2023-05-21T10:37:24;7.07;;;6.00;;
14088;SDS011;7120;52.890;6.040;2023-05-21T10:39:53;6.97;;;5.63;;
14088;SDS011;7120;52.890;6.040;2023-05-21T10:50:29;7.73;;;5.60;;
14088;SDS011;7120;52.890;6.040;2023-05-21T10:53:13;8.43;;;5.60;;
14088;SDS011;7120;52.890;6.040;2023-05-21T10:56:19;6.60;;;5.17;;
14088;SDS011;7120;52.890;6.040;2023-05-21T10:59:05;7.43;;;5.67;;
14088;SDS011;7120;52.890;6.040;2023-05-21T11:01:36;7.47;;;5.40;;
14088;SDS011;7120;52.890;6.040;2023-05-21T11:04:04;6.63;;;5.60;;
14088;SDS011;7120;52.890;6.040;2023-05-21T11:06:30;8.00;;;5.50;;
14088;SDS011;7120;52.890;6.040;2023-05-21T11:08:56;7.03;;;5.20;;
14088;SDS011;7120;52.890;6.040;2023-05-21T11:11:59;7.93;;;6.10;;
14088;SDS011;7120;52.890;6.040;2023-05-21T11:14:31;7.30;;;5.50;;
14088;SDS011;7120;52.890;6.040;2023-05-21T11:17:03;5.33;;;4.83;;
14088;SDS011;7120;52.890;6.040;2023-05-21T11:19:40;7.00;;;5.17;;
14088;SDS011;7120;52.890;6.040;2023-05-21T11:22:06;8.30;;;5.30;;
14088;SDS011;7120;52.890;6.040;2023-05-21T11:24:35;5.63;;;4.80;;
14088;SDS011;7120;52.890;6.040;2023-05-21T11:27:02;8.20;;;5.00;;
14088;SDS011;7120;52.890;6.040;2023-05-21T11:29:35;7.63;;;5.03;;
14088;SDS011;7120;52.890;6.040;2023-05-21T11:32:04;8.13;;;5.23;;
14088;SDS011;7120;52.890;6.040;2023-05-21T11:34:42;5.93;;;4.43;;
14088;SDS011;7120;52.890;6.040;2023-05-21T11:39:54;6.90;;;5.10;;
14088;SDS011;7120;52.890;6.040;2023-05-21T11:42:33;7.83;;;6.13;;
14088;SDS011;7120;52.890;6.040;2023-05-21T11:45:03;7.73;;;6.00;;
14088;SDS011;7120;52.890;6.040;2023-05-21T11:47:29;10.67;;;6.53;;
14088;SDS011;7120;52.890;6.040;2023-05-21T11:49:57;6.50;;;5.50;;
14088;SDS011;7120;52.890;6.040;2023-05-21T11:52:25;5.83;;;5.07;;
14088;SDS011;7120;52.890;6.040;2023-05-21T11:54:53;9.40;;;6.03;;
14088;SDS011;7120;52.890;6.040;2023-05-21T11:57:28;8.03;;;5.13;;
14088;SDS011;7120;52.890;6.040;2023-05-21T11:59:56;6.27;;;5.63;;
14088;SDS011;7120;52.890;6.040;2023-05-21T12:02:23;6.47;;;5.73;;
14088;SDS011;7120;52.890;6.040;2023-05-21T12:04:51;7.10;;;6.00;;
14088;SDS011;7120;52.890;6.040;2023-05-21T12:07:17;6.73;;;5.67;;
14088;SDS011;7120;52.890;6.040;2023-05-21T12:09:47;7.13;;;6.23;;
14088;SDS011;7120;52.890;6.040;2023-05-21T12:12:14;6.33;;;5.30;;
14088;SDS011;7120;52.890;6.040;2023-05-21T12:14:50;8.47;;;6.00;;
14088;SDS011;7120;52.890;6.040;2023-05-21T12:17:21;8.63;;;5.97;;
14088;SDS011;7120;52.890;6.040;2023-05-21T12:19:49;9.20;;;6.38;;
14088;SDS011;7120;52.890;6.040;2023-05-21T12:22:15;7.43;;;6.45;;
14088;SDS011;7120;52.890;6.040;2023-05-21T12:24:41;7.10;;;6.20;;
14088;SDS011;7120;52.890;6.040;2023-05-21T12:27:10;6.83;;;6.13;;
14088;SDS011;7120;52.890;6.040;2023-05-21T12:29:40;8.77;;;6.43;;
14088;SDS011;7120;52.890;6.040;2023-05-21T12:32:12;9.17;;;7.07;;
14088;SDS011;7120;52.890;6.040;2023-05-21T12:34:51;9.43;;;8.43;;
14088;SDS011;7120;52.890;6.040;2023-05-21T12:37:28;8.80;;;7.33;;
14088;SDS011;7120;52.890;6.040;2023-05-21T12:39:59;7.97;;;6.77;;
14088;SDS011;7120;52.890;6.040;2023-05-21T12:42:29;8.70;;;6.80;;
14088;SDS011;7120;52.890;6.040;2023-05-21T12:44:56;7.97;;;6.73;;
14088;SDS011;7120;52.890;6.040;2023-05-21T12:47:22;9.50;;;7.20;;
14088;SDS011;7120;52.890;6.040;2023-05-21T12:49:52;8.37;;;6.80;;
14088;SDS011;7120;52.890;6.040;2023-05-21T12:52:19;9.73;;;8.73;;
14088;SDS011;7120;52.890;6.040;2023-05-21T12:54:47;7.63;;;7.00;;
14088;SDS011;7120;52.890;6.040;2023-05-21T12:57:15;9.00;;;7.50;;
14088;SDS011;7120;52.890;6.040;2023-05-21T12:59:43;9.50;;;8.10;;
14088;SDS011;7120;52.890;6.040;2023-05-21T13:02:19;9.90;;;8.53;;
14088;SDS011;7120;52.890;6.040;2023-05-21T13:04:47;10.30;;;9.27;;
14088;SDS011;7120;52.890;6.040;2023-05-21T13:07:16;9.63;;;8.73;;
14088;SDS011;7120;52.890;6.040;2023-05-21T13:09:42;9.77;;;8.03;;
14088;SDS011;7120;52.890;6.040;2023-05-21T13:12:07;8.87;;;7.97;;
14088;SDS011;7120;52.890;6.040;2023-05-21T13:14:32;9.70;;;8.70;;
14088;SDS011;7120;52.890;6.040;2023-05-21T13:16:59;10.27;;;9.17;;
14088;SDS011;7120;52.890;6.040;2023-05-21T13:19:25;11.57;;;9.87;;
14088;SDS011;7120;52.890;6.040;2023-05-21T13:21:50;10.27;;;8.93;;
14088;SDS011;7120;52.890;6.040;2023-05-21T13:24:16;10.10;;;8.97;;
14088;SDS011;7120;52.890;6.040;2023-05-21T13:26:41;10.97;;;8.93;;
14088;SDS011;7120;52.890;6.040;2023-05-21T13:29:06;11.40;;;9.37;;
14088;SDS011;7120;52.890;6.040;2023-05-21T13:31:32;11.20;;;10.00;;
14088;SDS011;7120;52.890;6.040;2023-05-21T13:33:57;11.57;;;9.70;;
14088;SDS011;7120;52.890;6.040;2023-05-21T13:36:22;13.50;;;9.60;;
14088;SDS011;7120;52.890;6.040;2023-05-21T13:38:48;11.20;;;10.10;;
14088;SDS011;7120;52.890;6.040;2023-05-21T13:41:13;11.47;;;10.33;;
14088;SDS011;7120;52.890;6.040;2023-05-21T13:43:41;10.20;;;9.17;;
14088;SDS011;7120;52.890;6.040;2023-05-21T13:46:06;10.47;;;9.07;;
14088;SDS011;7120;52.890;6.040;2023-05-21T13:48:32;10.13;;;9.00;;
14088;SDS011;7120;52.890;6.040;2023-05-21T13:50:57;12.30;;;10.93;;
14088;SDS011;7120;52.890;6.040;2023-05-21T13:53:22;12.23;;;9.90;;
14088;SDS011;7120;52.890;6.040;2023-05-21T13:55:48;10.63;;;9.57;;
14088;SDS011;7120;52.890;6.040;2023-05-21T13:58:13;10.93;;;9.50;;
14088;SDS011;7120;52.890;6.040;2023-05-21T14:00:39;10.87;;;9.77;;
14088;SDS011;7120;52.890;6.040;2023-05-21T14:03:05;13.27;;;10.47;;
14088;SDS011;7120;52.890;6.040;2023-05-21T14:05:31;12.40;;;11.20;;
14088;SDS011;7120;52.890;6.040;2023-05-21T14:07:56;13.20;;;11.83;;
14088;SDS011;7120;52.890;6.040;2023-05-21T14:10:22;14.87;;;11.07;;
14088;SDS011;7120;52.890;6.040;2023-05-21T14:12:47;12.20;;;10.47;;
14088;SDS011;7120;52.890;6.040;2023-05-21T14:15:13;14.60;;;10.00;;
14088;SDS011;7120;52.890;6.040;2023-05-21T14:17:40;10.93;;;9.93;;
14088;SDS011;7120;52.890;6.040;2023-05-21T14:20:06;14.17;;;12.67;;
14088;SDS011;7120;52.890;6.040;2023-05-21T14:22:32;14.07;;;12.57;;
14088;SDS011;7120;52.890;6.040;2023-05-21T14:24:57;14.33;;;12.17;;
14088;SDS011;7120;52.890;6.040;2023-05-21T14:27:22;13.90;;;11.87;;
14088;SDS011;7120;52.890;6.040;2023-05-21T14:29:48;12.93;;;11.50;;
14088;SDS011;7120;52.890;6.040;2023-05-21T14:32:13;13.67;;;12.40;;
14088;SDS011;7120;52.890;6.040;2023-05-21T14:34:39;13.67;;;12.37;;
14088;SDS011;7120;52.890;6.040;2023-05-21T14:37:05;15.03;;;12.57;;
14088;SDS011;7120;52.890;6.040;2023-05-21T14:39:30;13.87;;;12.57;;
14088;SDS011;7120;52.890;6.040;2023-05-21T14:41:56;14.07;;;12.70;;
14088;SDS011;7120;52.890;6.040;2023-05-21T14:44:21;14.03;;;12.53;;
14088;SDS011;7120;52.890;6.040;2023-05-21T14:46:46;14.60;;;13.00;;
14088;SDS011;7120;52.890;6.040;2023-05-21T14:49:11;13.97;;;12.30;;
14088;SDS011;7120;52.890;6.040;2023-05-21T14:51:38;16.87;;;13.23;;
14088;SDS011;7120;52.890;6.040;2023-05-21T14:54:04;14.80;;;13.30;;
14088;SDS011;7120;52.890;6.040;2023-05-21T14:56:30;14.70;;;13.40;;
14088;SDS011;7120;52.890;6.040;2023-05-21T14:58:55;14.60;;;13.20;;
14088;SDS011;7120;52.890;6.040;2023-05-21T15:01:20;15.00;;;13.50;;
14088;SDS011;7120;52.890;6.040;2023-05-21T15:03:46;14.53;;;12.63;;
14088;SDS011;7120;52.890;6.040;2023-05-21T15:06:11;16.13;;;13.40;;
14088;SDS011;7120;52.890;6.040;2023-05-21T15:08:37;14.70;;;13.40;;
14088;SDS011;7120;52.890;6.040;2023-05-21T15:11:02;14.83;;;13.30;;